createdAt,value
2022-11-26T00:00:29.258Z,6.22
2022-11-26T00:02:57.310Z,10.25
2022-11-26T00:05:25.840Z,4.70
2022-11-26T00:07:57.102Z,6.85
2022-11-26T00:10:29.046Z,6.28
2022-11-26T00:12:57.931Z,8.40
2022-11-26T00:15:27.256Z,6.47
2022-11-26T00:17:55.575Z,5.82
2022-11-26T00:20:25.736Z,5.45
2022-11-26T00:22:55.452Z,7.05
2022-11-26T00:25:28.113Z,8.52
2022-11-26T00:27:59.056Z,6.50
2022-11-26T00:30:29.554Z,10.65
2022-11-26T00:32:57.463Z,7.90
2022-11-26T00:35:25.104Z,8.10
2022-11-26T00:37:56.220Z,5.38
2022-11-26T00:40:27.498Z,5.90
2022-11-26T00:43:01.625Z,5.63
2022-11-26T00:45:32.006Z,5.80
2022-11-26T00:48:01.552Z,22.83
2022-11-26T00:50:34.887Z,12.60
2022-11-26T00:53:02.555Z,10.27
2022-11-26T00:55:35.221Z,11.90
2022-11-26T00:58:03.122Z,13.03
2022-11-26T01:00:33.213Z,11.43
2022-11-26T01:03:01.765Z,7.50
2022-11-26T01:05:33.370Z,5.57
2022-11-26T01:08:08.081Z,8.68
2022-11-26T01:10:37.068Z,5.78
2022-11-26T01:13:04.748Z,10.55
2022-11-26T01:15:32.379Z,7.32
2022-11-26T01:18:00.052Z,5.68
2022-11-26T01:20:29.929Z,10.57
2022-11-26T01:22:59.460Z,6.45
2022-11-26T01:25:28.473Z,7.75
2022-11-26T01:27:57.418Z,8.27
2022-11-26T01:30:27.206Z,8.18
2022-11-26T01:32:54.902Z,7.57
2022-11-26T01:35:23.206Z,7.90
2022-11-26T01:37:50.961Z,8.63
2022-11-26T01:40:32.132Z,6.00
2022-11-26T01:43:07.372Z,8.30
2022-11-26T01:45:35.094Z,7.90
2022-11-26T01:48:03.005Z,10.60
2022-11-26T01:50:53.592Z,7.88
2022-11-26T01:53:38.821Z,10.27
2022-11-26T01:56:14.542Z,8.80
2022-11-26T01:58:47.338Z,8.02
2022-11-26T02:01:15.084Z,10.32
2022-11-26T02:03:50.836Z,7.55
2022-11-26T02:06:23.362Z,7.82
2022-11-26T02:08:50.977Z,9.53
2022-11-26T02:11:20.998Z,7.03
2022-11-26T02:13:53.772Z,9.27
2022-11-26T02:16:35.359Z,8.10
2022-11-26T02:19:22.506Z,6.93
2022-11-26T02:21:57.921Z,9.32
2022-11-26T02:24:39.897Z,9.95
2022-11-26T02:27:28.726Z,11.02
2022-11-26T02:30:12.114Z,6.50
2022-11-26T02:32:57.379Z,5.43
2022-11-26T02:35:33.631Z,8.65
2022-11-26T02:38:06.079Z,6.13
2022-11-26T02:40:34.026Z,9.50
2022-11-26T02:43:01.775Z,8.40
2022-11-26T02:45:35.026Z,7.00
2022-11-26T02:48:07.540Z,7.13
2022-11-26T02:57:14.545Z,7.38
2022-11-26T02:59:43.189Z,8.20
2022-11-26T03:02:16.993Z,8.68
2022-11-26T03:04:48.543Z,8.48
2022-11-26T03:07:18.712Z,10.98
2022-11-26T03:09:52.070Z,8.32
2022-11-26T03:12:19.701Z,7.55
2022-11-26T03:14:47.464Z,10.05
2022-11-26T03:17:16.818Z,7.07
2022-11-26T03:19:44.574Z,8.93
2022-11-26T03:22:12.786Z,7.60
2022-11-26T03:24:40.968Z,6.53
2022-11-26T03:27:08.771Z,9.73
2022-11-26T03:29:36.348Z,7.50
2022-11-26T03:32:04.180Z,9.10
2022-11-26T03:34:33.257Z,6.32
2022-11-26T03:37:00.884Z,10.60
2022-11-26T03:39:28.531Z,9.35
2022-11-26T03:41:56.159Z,6.47
2022-11-26T03:44:23.757Z,6.57
2022-11-26T03:46:51.405Z,11.07
2022-11-26T03:49:19.010Z,8.02
2022-11-26T03:51:47.935Z,8.98
2022-11-26T03:54:15.640Z,7.13
2022-11-26T03:56:43.296Z,10.18
2022-11-26T03:59:10.874Z,11.95
2022-11-26T04:01:39.604Z,9.43
2022-11-26T04:04:07.210Z,9.65
2022-11-26T04:06:34.861Z,6.68
2022-11-26T04:09:04.043Z,10.90
2022-11-26T04:11:31.765Z,10.07
2022-11-26T04:13:59.404Z,8.73
2022-11-26T04:16:27.176Z,7.32
2022-11-26T04:18:55.772Z,4.00
2022-11-26T04:21:23.434Z,9.57
2022-11-26T04:23:51.043Z,7.90
2022-11-26T04:26:20.064Z,6.72
2022-11-26T04:28:47.689Z,9.13
2022-11-26T04:31:15.420Z,5.10
2022-11-26T04:33:43.160Z,10.50
2022-11-26T04:36:11.100Z,8.45
2022-11-26T04:38:39.005Z,9.50
2022-11-26T04:41:06.905Z,8.43
2022-11-26T04:43:35.885Z,8.32
2022-11-26T04:46:03.512Z,10.23
2022-11-26T04:48:31.193Z,8.13
2022-11-26T04:50:58.922Z,8.45
2022-11-26T04:53:26.612Z,10.43
2022-11-26T04:55:54.243Z,6.70
2022-11-26T04:58:22.106Z,9.02
2022-11-26T05:00:51.701Z,6.07
2022-11-26T05:03:19.935Z,10.23
2022-11-26T05:05:47.986Z,8.55
2022-11-26T05:08:15.756Z,11.45
2022-11-26T05:10:43.396Z,7.70
2022-11-26T05:13:11.128Z,29.38
2022-11-26T05:15:39.071Z,40.67
2022-11-26T05:18:08.052Z,27.85
2022-11-26T05:20:35.634Z,12.65
2022-11-26T05:23:03.276Z,17.42
2022-11-26T05:25:30.854Z,19.23
2022-11-26T05:27:58.402Z,20.23
2022-11-26T05:30:26.028Z,20.48
2022-11-26T05:32:53.715Z,17.80
2022-11-26T05:35:22.772Z,12.85
2022-11-26T05:37:50.440Z,13.48
2022-11-26T05:40:18.062Z,13.23
2022-11-26T05:42:45.693Z,14.30
2022-11-26T05:45:13.304Z,12.40
2022-11-26T05:47:40.950Z,17.95
2022-11-26T05:50:10.096Z,14.10
2022-11-26T05:52:39.070Z,12.98
2022-11-26T05:55:08.195Z,13.35
2022-11-26T05:57:35.780Z,11.45
2022-11-26T06:00:03.492Z,8.23
2022-11-26T06:02:39.795Z,8.70
2022-11-26T06:05:09.073Z,7.70
2022-11-26T06:07:40.511Z,8.65
2022-11-26T06:10:13.101Z,12.20
2022-11-26T06:12:40.701Z,10.52
2022-11-26T06:15:09.102Z,11.70
2022-11-26T06:17:36.816Z,9.48
2022-11-26T06:20:05.380Z,16.60
2022-11-26T06:22:37.400Z,11.57
2022-11-26T06:25:05.560Z,11.70
2022-11-26T06:27:35.524Z,12.23
2022-11-26T06:30:04.567Z,11.10
2022-11-26T06:32:33.081Z,10.30
2022-11-26T06:35:00.796Z,12.10
2022-11-26T06:37:28.457Z,12.02
2022-11-26T06:39:56.039Z,16.70
2022-11-26T06:42:23.623Z,13.52
2022-11-26T06:44:57.027Z,10.80
2022-11-26T06:47:27.440Z,16.52
2022-11-26T06:49:55.075Z,12.23
2022-11-26T06:52:22.659Z,14.50
2022-11-26T06:54:51.551Z,16.67
2022-11-26T06:57:19.144Z,14.13
2022-11-26T06:59:46.756Z,16.70
2022-11-26T07:02:15.750Z,14.68
2022-11-26T07:04:43.632Z,17.58
2022-11-26T07:07:11.329Z,15.43
2022-11-26T07:09:39.850Z,13.63
2022-11-26T07:12:07.661Z,14.77
2022-11-26T07:14:35.367Z,12.50
2022-11-26T07:17:02.989Z,15.38
2022-11-26T07:19:32.098Z,17.73
2022-11-26T07:21:59.756Z,14.45
2022-11-26T07:24:27.681Z,10.73
2022-11-26T07:26:56.116Z,11.27
2022-11-26T07:29:23.744Z,14.80
2022-11-26T07:31:51.434Z,25.65
2022-11-26T07:34:19.075Z,43.10
2022-11-26T07:36:48.080Z,28.10
2022-11-26T07:39:15.682Z,29.80
2022-11-26T07:41:43.264Z,21.00
2022-11-26T07:44:13.417Z,14.88
2022-11-26T07:46:41.554Z,10.75
2022-11-26T07:49:09.293Z,11.35
2022-11-26T07:51:39.239Z,14.23
2022-11-26T07:54:09.561Z,22.40
2022-11-26T07:56:37.579Z,14.93
2022-11-26T07:59:05.796Z,21.67
2022-11-26T08:01:34.025Z,16.20
2022-11-26T08:04:05.213Z,12.48
2022-11-26T08:06:33.091Z,22.30
2022-11-26T08:09:02.167Z,9.73
2022-11-26T08:11:32.762Z,12.52
2022-11-26T08:14:02.324Z,11.95
2022-11-26T08:16:30.396Z,14.43
2022-11-26T08:18:59.500Z,13.82
2022-11-26T08:21:27.660Z,11.32
2022-11-26T08:23:55.921Z,14.05
2022-11-26T08:26:32.959Z,15.50
2022-11-26T08:29:05.156Z,18.95
2022-11-26T08:36:05.985Z,18.05
2022-11-26T08:47:00.415Z,13.05
2022-11-26T08:49:28.266Z,17.70
2022-11-26T08:51:56.649Z,15.20
2022-11-26T08:54:25.031Z,13.63
2022-11-26T08:56:52.674Z,15.32
2022-11-26T08:59:22.840Z,11.15
2022-11-26T09:01:50.778Z,15.73
2022-11-26T09:04:19.784Z,14.77
2022-11-26T09:06:47.364Z,13.45
2022-11-26T09:09:15.446Z,14.68
2022-11-26T09:11:46.065Z,14.40
2022-11-26T09:14:14.542Z,13.50
2022-11-26T09:16:42.301Z,11.25
2022-11-26T09:19:11.718Z,14.05
2022-11-26T09:21:40.645Z,15.25
2022-11-26T09:24:08.865Z,11.07
2022-11-26T09:26:36.566Z,14.05
2022-11-26T09:29:05.145Z,16.10
2022-11-26T09:31:33.261Z,14.68
2022-11-26T09:34:01.978Z,13.13
2022-11-26T09:36:29.625Z,14.70
2022-11-26T09:38:59.679Z,14.35
2022-11-26T09:41:40.510Z,15.65
2022-11-26T09:44:25.280Z,12.45
2022-11-26T09:47:12.220Z,11.63
2022-11-26T09:49:45.533Z,12.70
2022-11-26T09:52:17.961Z,10.57
2022-11-26T09:54:49.167Z,9.73
2022-11-26T09:57:24.185Z,12.73
2022-11-26T09:59:54.196Z,14.85
2022-11-26T10:02:22.019Z,11.43
2022-11-26T10:04:49.810Z,25.80
2022-11-26T10:07:31.432Z,13.85
2022-11-26T10:10:09.171Z,22.73
2022-11-26T10:13:17.192Z,10.15
2022-11-26T10:15:50.369Z,15.18
2022-11-26T10:18:29.519Z,12.60
2022-11-26T10:21:08.871Z,15.73
2022-11-26T10:23:45.275Z,12.80
2022-11-26T10:26:28.367Z,15.13
2022-11-26T10:29:07.329Z,14.45
2022-11-26T10:31:35.399Z,12.40
2022-11-26T10:34:09.761Z,17.10
2022-11-26T10:36:39.666Z,15.43
2022-11-26T10:39:08.600Z,13.18
2022-11-26T10:41:38.737Z,12.38
2022-11-26T10:44:28.849Z,11.63
2022-11-26T10:46:56.580Z,14.15
2022-11-26T10:49:25.936Z,13.48
2022-11-26T10:51:57.280Z,13.20
2022-11-26T10:54:29.019Z,14.15
2022-11-26T10:57:04.904Z,10.68
2022-11-26T10:59:37.913Z,9.88
2022-11-26T11:02:30.397Z,13.18
2022-11-26T11:05:02.157Z,14.93
2022-11-26T11:07:35.108Z,10.48
2022-11-26T11:10:05.224Z,12.48
2022-11-26T11:12:34.247Z,8.77
2022-11-26T11:15:20.508Z,11.32
2022-11-26T11:17:54.565Z,8.40
2022-11-26T11:20:30.127Z,10.88
2022-11-26T11:23:01.080Z,9.80
2022-11-26T11:25:31.429Z,8.23
2022-11-26T11:28:11.957Z,12.02
2022-11-26T11:30:42.103Z,11.02
2022-11-26T11:33:28.829Z,8.43
2022-11-26T11:36:05.670Z,12.30
2022-11-26T11:38:35.494Z,7.57
2022-11-26T11:41:12.509Z,9.05
2022-11-26T11:43:41.651Z,9.15
2022-11-26T11:46:25.192Z,8.70
2022-11-26T11:49:01.175Z,9.23
2022-11-26T11:51:39.250Z,10.93
2022-11-26T11:54:16.530Z,10.23
2022-11-26T11:56:50.533Z,11.18
2022-11-26T11:59:47.834Z,10.98
2022-11-26T12:02:51.526Z,9.02
2022-11-26T12:05:43.699Z,8.25
2022-11-26T12:08:24.815Z,8.20
2022-11-26T12:11:05.270Z,9.35
2022-11-26T12:13:39.973Z,9.38
2022-11-26T12:16:13.102Z,9.23
2022-11-26T12:18:47.540Z,11.07
2022-11-26T12:21:17.384Z,6.78
2022-11-26T12:23:50.617Z,10.73
2022-11-26T12:26:23.087Z,6.68
2022-11-26T12:28:56.080Z,10.85
2022-11-26T12:31:30.625Z,7.57
2022-11-26T12:34:08.528Z,10.00
2022-11-26T12:36:45.441Z,8.15
2022-11-26T12:39:19.382Z,10.10
2022-11-26T12:41:56.499Z,8.77
2022-11-26T12:44:29.894Z,10.55
2022-11-26T12:49:39.389Z,12.77
2022-11-26T12:52:25.714Z,4.72
2022-11-26T12:55:02.355Z,9.63
2022-11-26T12:57:35.073Z,6.85
2022-11-26T13:00:06.967Z,8.30
2022-11-26T13:02:39.059Z,7.95
2022-11-26T13:05:07.769Z,9.55
2022-11-26T13:07:50.031Z,9.65
2022-11-26T13:10:27.765Z,8.02
2022-11-26T13:13:03.905Z,7.53
2022-11-26T13:15:38.592Z,9.75
2022-11-26T13:18:14.441Z,10.90
2022-11-26T13:20:59.770Z,9.65
2022-11-26T13:23:42.106Z,6.68
2022-11-26T13:26:27.048Z,6.20
2022-11-26T13:29:23.716Z,9.45
2022-11-26T13:32:12.720Z,12.57
2022-11-26T13:34:59.841Z,10.93
2022-11-26T13:37:47.946Z,7.72
2022-11-26T13:40:48.262Z,6.00
2022-11-26T13:43:37.822Z,6.25
2022-11-26T13:46:17.599Z,7.57
2022-11-26T13:48:57.057Z,11.43
2022-11-26T13:51:32.687Z,8.25
2022-11-26T13:54:07.718Z,8.52
2022-11-26T13:56:37.401Z,9.20
2022-11-26T13:59:16.152Z,8.55
2022-11-26T14:01:44.009Z,9.07
2022-11-26T14:04:14.071Z,10.07
2022-11-26T14:07:20.196Z,8.98
2022-11-26T14:09:50.974Z,6.70
2022-11-26T14:12:19.773Z,10.35
2022-11-26T14:14:48.950Z,9.75
2022-11-26T14:17:19.787Z,7.47
2022-11-26T14:20:01.604Z,7.05
2022-11-26T14:22:33.547Z,6.47
2022-11-26T14:25:02.963Z,6.72
2022-11-26T14:27:33.378Z,10.40
2022-11-26T14:30:14.680Z,9.75
2022-11-26T14:32:49.086Z,6.80
2022-11-26T14:35:21.932Z,5.93
2022-11-26T14:37:56.620Z,11.02
2022-11-26T14:40:26.713Z,9.85
2022-11-26T14:43:15.716Z,6.72
2022-11-26T14:45:44.421Z,11.75
2022-11-26T14:48:27.734Z,4.03
2022-11-26T14:50:57.501Z,11.10
2022-11-26T14:53:29.107Z,8.77
2022-11-26T14:55:57.938Z,11.13
2022-11-26T14:58:32.823Z,9.70
2022-11-26T15:01:07.341Z,18.30
2022-11-26T15:03:35.335Z,22.85
2022-11-26T15:06:03.273Z,15.02
2022-11-26T15:08:32.198Z,12.75
2022-11-26T15:11:03.357Z,8.18
2022-11-26T15:13:37.440Z,13.63
2022-11-26T15:16:27.556Z,8.82
2022-11-26T15:18:56.549Z,8.65
2022-11-26T15:21:26.099Z,8.73
2022-11-26T15:23:59.114Z,10.25
2022-11-26T15:26:32.689Z,10.82
2022-11-26T15:31:40.558Z,7.68
2022-11-26T15:34:12.632Z,8.50
2022-11-26T15:36:40.452Z,7.70
2022-11-26T15:39:25.334Z,7.45
2022-11-26T15:41:55.178Z,5.78
2022-11-26T15:44:26.854Z,8.60
2022-11-26T15:46:57.168Z,9.88
2022-11-26T15:49:28.203Z,6.90
2022-11-26T15:52:00.809Z,6.43
2022-11-26T15:54:49.625Z,6.67
2022-11-26T15:57:25.411Z,11.77
2022-11-26T15:59:58.382Z,14.48
2022-11-26T16:02:28.167Z,8.27
2022-11-26T16:04:57.916Z,9.40
2022-11-26T16:07:28.104Z,10.85
2022-11-26T16:10:21.358Z,9.45
2022-11-26T16:13:08.874Z,12.05
2022-11-26T16:15:37.466Z,10.18
2022-11-26T16:18:14.805Z,9.63
2022-11-26T16:20:43.162Z,17.38
2022-11-26T16:23:21.437Z,19.08
2022-11-26T16:26:08.993Z,18.80
2022-11-26T16:28:37.042Z,12.60
2022-11-26T16:31:04.800Z,12.57
2022-11-26T16:33:32.497Z,12.27
2022-11-26T16:36:01.639Z,11.23
2022-11-26T16:38:30.122Z,10.32
2022-11-26T16:40:57.711Z,9.32
2022-11-26T16:43:26.763Z,9.27
2022-11-26T16:45:56.158Z,14.25
2022-11-26T16:48:28.521Z,8.02
2022-11-26T16:50:57.131Z,12.35
2022-11-26T16:53:24.981Z,10.95
2022-11-26T16:55:54.827Z,7.68
2022-11-26T16:58:29.234Z,7.18
2022-11-26T17:00:57.738Z,8.45
2022-11-26T17:03:27.496Z,7.35
2022-11-26T17:05:57.506Z,7.63
2022-11-26T17:08:25.188Z,7.28
2022-11-26T17:10:54.810Z,7.40
2022-11-26T17:13:22.624Z,8.18
2022-11-26T17:15:52.400Z,10.25
2022-11-26T17:18:23.399Z,10.05
2022-11-26T17:20:52.720Z,9.57
2022-11-26T17:23:20.359Z,14.10
2022-11-26T17:25:52.179Z,12.18
2022-11-26T17:28:20.964Z,18.05
2022-11-26T17:30:48.656Z,17.42
2022-11-26T17:33:17.736Z,11.27
2022-11-26T17:35:45.639Z,9.55
2022-11-26T17:38:16.137Z,11.88
2022-11-26T17:40:44.784Z,9.07
2022-11-26T17:43:12.767Z,12.85
2022-11-26T17:45:42.876Z,11.98
2022-11-26T17:48:13.846Z,8.73
2022-11-26T17:50:43.242Z,12.95
2022-11-26T17:53:10.913Z,13.88
2022-11-26T17:55:39.466Z,10.05
2022-11-26T17:58:07.268Z,13.88
2022-11-26T18:00:34.942Z,10.07
2022-11-26T18:03:02.688Z,11.55
2022-11-26T18:05:30.630Z,9.15
2022-11-26T18:07:59.613Z,10.70
2022-11-26T18:10:27.417Z,8.90
2022-11-26T18:12:55.255Z,10.88
2022-11-26T18:15:24.927Z,14.07
2022-11-26T18:17:54.651Z,15.48
2022-11-26T18:20:24.954Z,17.35
2022-11-26T18:22:53.510Z,18.17
2022-11-26T18:25:22.613Z,15.10
2022-11-26T18:27:50.288Z,22.95
2022-11-26T18:30:18.730Z,16.60
2022-11-26T18:32:46.474Z,14.55
2022-11-26T18:35:14.495Z,16.50
2022-11-26T18:37:42.601Z,15.10
2022-11-26T18:40:14.421Z,13.63
2022-11-26T18:42:43.554Z,12.43
2022-11-26T18:45:14.682Z,16.10
2022-11-26T18:47:42.335Z,15.82
2022-11-26T18:50:10.579Z,15.52
2022-11-26T18:52:38.785Z,18.33
2022-11-26T18:55:08.011Z,16.85
2022-11-26T18:57:35.642Z,13.27
2022-11-26T19:00:06.833Z,14.85
2022-11-26T19:02:34.851Z,14.90
2022-11-26T19:05:03.538Z,16.42
2022-11-26T19:07:33.015Z,12.73
2022-11-26T19:10:00.806Z,22.98
2022-11-26T19:12:28.390Z,25.23
2022-11-26T19:14:56.021Z,11.82
2022-11-26T19:17:24.954Z,14.13
2022-11-26T19:19:52.550Z,11.93
2022-11-26T19:22:20.178Z,11.73
2022-11-26T19:24:49.353Z,11.20
2022-11-26T19:27:16.978Z,11.00
2022-11-26T19:29:44.582Z,11.32
2022-11-26T19:32:12.305Z,10.38
2022-11-26T19:34:41.336Z,10.65
2022-11-26T19:37:08.941Z,11.20
2022-11-26T19:39:37.358Z,11.27
2022-11-26T19:42:05.413Z,14.93
2022-11-26T19:44:35.208Z,12.43
2022-11-26T19:47:03.200Z,11.30
2022-11-26T19:49:30.883Z,15.30
2022-11-26T19:51:59.925Z,19.52
2022-11-26T19:54:27.938Z,21.08
2022-11-26T19:56:55.583Z,16.77
2022-11-26T19:59:23.217Z,16.33
2022-11-26T20:01:50.964Z,17.70
2022-11-26T20:04:19.492Z,15.77
2022-11-26T20:06:47.400Z,13.48
2022-11-26T20:09:16.372Z,13.77
2022-11-26T20:11:44.506Z,15.52
2022-11-26T20:14:14.416Z,14.45
2022-11-26T20:16:44.128Z,19.70
2022-11-26T20:19:13.170Z,15.02
2022-11-26T20:21:40.990Z,20.30
2022-11-26T20:24:12.415Z,18.98
2022-11-26T20:26:43.259Z,15.73
2022-11-26T20:29:13.572Z,14.40
2022-11-26T20:31:44.497Z,19.75
2022-11-26T20:34:14.125Z,18.40
2022-11-26T20:36:41.725Z,21.08
2022-11-26T20:39:13.496Z,17.35
2022-11-26T20:41:42.816Z,18.13
2022-11-26T20:44:10.999Z,14.70
2022-11-26T20:46:38.951Z,10.00
2022-11-26T20:49:07.349Z,12.27
2022-11-26T20:51:35.212Z,15.65
2022-11-26T20:54:03.267Z,16.35
2022-11-26T20:56:31.130Z,12.80
2022-11-26T20:59:00.060Z,18.67
2022-11-26T21:01:29.323Z,21.10
2022-11-26T21:03:57.385Z,15.00
2022-11-26T21:06:30.183Z,14.90
2022-11-26T21:09:00.332Z,17.58
2022-11-26T21:11:28.161Z,16.55
2022-11-26T21:13:55.722Z,18.75
2022-11-26T21:16:24.660Z,19.10
2022-11-26T21:18:54.003Z,25.17
2022-11-26T21:21:21.795Z,23.02
2022-11-26T21:23:49.386Z,19.55
2022-11-26T21:26:18.818Z,22.25
2022-11-26T21:28:51.131Z,16.35
2022-11-26T21:31:19.399Z,15.95
2022-11-26T21:33:54.055Z,14.65
2022-11-26T21:36:21.712Z,15.52
2022-11-26T21:38:50.120Z,15.70
2022-11-26T21:41:19.789Z,21.55
2022-11-26T21:43:49.437Z,21.65
2022-11-26T21:46:19.650Z,23.15
2022-11-26T21:48:48.719Z,23.08
2022-11-26T21:51:17.854Z,33.25
2022-11-26T21:53:45.825Z,59.63
2022-11-26T21:56:17.116Z,47.50
2022-11-26T21:58:45.066Z,34.00
2022-11-26T22:01:13.975Z,22.17
2022-11-26T22:03:43.133Z,18.00
2022-11-26T22:06:12.764Z,17.50
2022-11-26T22:08:40.738Z,15.25
2022-11-26T22:11:10.018Z,15.13
2022-11-26T22:13:37.836Z,16.65
2022-11-26T22:16:06.480Z,20.17
2022-11-26T22:18:36.463Z,16.98
2022-11-26T22:21:04.385Z,17.80
2022-11-26T22:23:33.410Z,16.98
2022-11-26T22:26:01.062Z,18.90
2022-11-26T22:28:30.332Z,18.35
2022-11-26T22:30:58.200Z,23.92
2022-11-26T22:33:25.896Z,29.10
2022-11-26T22:35:53.470Z,25.10
2022-11-26T22:38:21.054Z,25.85
2022-11-26T22:40:50.066Z,25.88
2022-11-26T22:43:17.749Z,24.25
2022-11-26T22:45:45.429Z,24.13
2022-11-26T22:48:13.165Z,20.90
2022-11-26T22:50:40.728Z,19.23
2022-11-26T22:53:08.384Z,17.35
2022-11-26T22:55:36.080Z,19.80
2022-11-26T22:58:05.033Z,17.20
2022-11-26T23:00:47.494Z,16.80
2022-11-26T23:03:16.284Z,19.33
2022-11-26T23:05:44.351Z,15.75
2022-11-26T23:08:12.623Z,16.67
2022-11-26T23:10:40.829Z,19.23
2022-11-26T23:13:10.591Z,15.35
2022-11-26T23:15:44.527Z,18.45
2022-11-26T23:18:13.649Z,19.73
2022-11-26T23:20:42.317Z,17.52
2022-11-26T23:23:10.653Z,23.25
2022-11-26T23:25:39.800Z,16.85
2022-11-26T23:28:08.000Z,21.48
2022-11-26T23:30:37.122Z,23.10
2022-11-26T23:33:04.806Z,27.83
2022-11-26T23:35:32.456Z,22.55
2022-11-26T23:38:00.067Z,22.42
2022-11-26T23:40:27.705Z,22.23
2022-11-26T23:42:55.515Z,23.13
2022-11-26T23:45:23.071Z,22.00
2022-11-26T23:47:52.097Z,26.30
2022-11-26T23:50:19.836Z,23.10
2022-11-26T23:52:47.436Z,21.38
2022-11-26T23:55:16.418Z,22.70
2022-11-26T23:57:44.081Z,25.65
